Time;durP1;ratioP1;P1;durP2;ratioP2;P2;SDS_P1;SDS_P2;PMS_P1;PMS_P2;Temp;Humidity;BMP_temperature;BMP_pressure;BME280_temperature;BME280_humidity;BME280_pressure;Samples;Min_cycle;Max_cycle;Signal;HPM_P1;HPM_P2
2022/01/02 00:02:10;;;;;;;27.77;15.30;;;4.40;99.90;;;;;;5027195;28;20025;-77
2022/01/02 00:04:38;;;;;;;28.55;15.68;;;4.40;99.90;;;;;;5024384;28;20042;-78
2022/01/02 00:07:06;;;;;;;28.60;15.23;;;4.40;99.90;;;;;;5028762;28;20579;-77
2022/01/02 00:09:37;;;;;;;29.45;15.65;;;4.40;99.90;;;;;;5028110;28;20048;-77
2022/01/02 00:12:10;;;;;;;26.50;14.90;;;4.40;99.90;;;;;;5030144;28;20065;-78
2022/01/02 00:14:38;;;;;;;25.45;14.38;;;4.50;99.90;;;;;;5028324;28;20037;-78
2022/01/02 00:17:05;;;;;;;29.67;16.17;;;4.50;99.90;;;;;;5028945;28;20117;-78
2022/01/02 00:19:32;;;;;;;25.77;15.02;;;4.40;99.90;;;;;;5028667;28;20049;-78
2022/01/02 00:22:01;;;;;;;26.38;15.18;;;4.50;99.90;;;;;;5029279;28;20052;-78
2022/01/02 00:24:28;;;;;;;25.70;14.85;;;4.40;99.90;;;;;;5029841;28;20022;-77
2022/01/02 00:26:56;;;;;;;29.27;16.42;;;4.50;99.90;;;;;;5023775;28;20128;-77
2022/01/02 00:29:22;;;;;;;30.45;16.40;;;4.40;99.90;;;;;;5027692;28;20033;-77
2022/01/02 00:31:48;;;;;;;25.13;14.48;;;4.50;99.90;;;;;;5027211;28;20104;-77
2022/01/02 00:34:15;;;;;;;31.63;16.15;;;4.40;99.90;;;;;;5028785;28;20457;-77
2022/01/02 00:36:41;;;;;;;24.85;15.20;;;4.30;99.90;;;;;;5028579;28;20105;-77
2022/01/02 00:39:07;;;;;;;26.25;14.35;;;4.30;99.90;;;;;;5030815;28;20022;-77
2022/01/02 00:42:08;;;;;;;24.92;13.73;;;4.30;99.90;;;;;;5029000;28;20032;-77
2022/01/02 00:44:45;;;;;;;26.35;14.65;;;4.30;99.90;;;;;;5025669;28;20045;-77
2022/01/02 00:47:43;;;;;;;23.23;13.65;;;4.30;99.90;;;;;;5025995;28;20048;-77
2022/01/02 00:50:13;;;;;;;24.05;14.07;;;4.30;99.90;;;;;;5025706;28;20033;-77
2022/01/02 00:52:44;;;;;;;28.55;14.50;;;4.20;99.90;;;;;;5025932;28;20111;-78
2022/01/02 00:55:16;;;;;;;26.55;15.35;;;4.20;99.90;;;;;;5009251;28;20048;-77
2022/01/02 00:57:43;;;;;;;26.42;14.68;;;4.20;99.90;;;;;;5026120;28;20028;-77
2022/01/02 01:00:13;;;;;;;28.50;16.63;;;4.10;99.90;;;;;;5011055;28;20037;-77
2022/01/02 01:02:50;;;;;;;26.88;15.20;;;4.10;99.90;;;;;;5012615;28;20025;-77
2022/01/02 01:05:37;;;;;;;27.17;15.52;;;4.00;99.90;;;;;;5025239;28;20129;-78
2022/01/02 01:08:05;;;;;;;30.75;16.70;;;4.00;99.90;;;;;;5004481;28;20127;-78
2022/01/02 01:10:34;;;;;;;32.17;15.35;;;4.00;99.90;;;;;;5025873;28;20078;-77
2022/01/02 01:13:08;;;;;;;27.45;15.80;;;4.10;99.90;;;;;;5026217;28;20034;-77
2022/01/02 01:15:35;;;;;;;29.80;15.88;;;4.00;99.90;;;;;;5025651;28;20083;-77
2022/01/02 01:18:03;;;;;;;31.67;17.17;;;3.90;99.90;;;;;;5027248;28;20032;-77
2022/01/02 01:20:40;;;;;;;35.97;18.52;;;4.10;99.90;;;;;;5026083;28;20040;-77
2022/01/02 01:23:07;;;;;;;32.88;17.90;;;4.00;99.90;;;;;;5028089;28;20510;-77
2022/01/02 01:25:33;;;;;;;30.75;16.48;;;4.00;99.90;;;;;;5026574;28;20091;-77
2022/01/02 01:27:59;;;;;;;34.35;17.95;;;4.00;99.90;;;;;;5028172;28;20030;-77
2022/01/02 01:30:27;;;;;;;33.58;17.77;;;4.00;99.90;;;;;;5029373;28;20082;-77
2022/01/02 01:32:54;;;;;;;34.67;17.58;;;4.00;99.90;;;;;;5028773;28;20029;-77
2022/01/02 01:35:21;;;;;;;33.85;17.50;;;4.00;99.90;;;;;;5023428;28;20033;-77
2022/01/02 01:37:47;;;;;;;32.30;16.80;;;3.80;99.90;;;;;;5026130;28;20014;-78
2022/01/02 01:40:14;;;;;;;37.80;19.45;;;3.60;99.90;;;;;;5026458;28;20032;-77
2022/01/02 01:42:44;;;;;;;30.38;15.77;;;3.60;99.90;;;;;;5028036;28;20048;-77
2022/01/02 01:47:49;;;;;;;25.00;13.30;;;3.80;99.90;;;;;;5027687;28;20030;-77
2022/01/02 01:50:16;;;;;;;24.45;12.95;;;4.10;99.90;;;;;;5027535;28;20036;-77
2022/01/02 01:52:42;;;;;;;23.55;11.73;;;4.30;99.90;;;;;;5027286;28;20032;-77
2022/01/02 01:55:09;;;;;;;17.20;9.95;;;4.60;99.90;;;;;;5026675;28;20404;-77
2022/01/02 01:57:35;;;;;;;15.50;9.05;;;4.70;99.90;;;;;;5027071;28;20162;-77
2022/01/02 02:00:06;;;;;;;13.48;7.30;;;4.80;99.90;;;;;;5027320;28;20053;-78
2022/01/02 02:02:32;;;;;;;;;;;4.80;99.90;;;;;;5027205;28;20033;-78
2022/01/02 02:04:58;;;;;;;12.18;6.57;;;4.90;99.90;;;;;;5027533;28;19909;-78
2022/01/02 02:07:28;;;;;;;12.48;6.00;;;4.90;99.90;;;;;;5027585;28;20038;-78
2022/01/02 02:10:12;;;;;;;9.73;5.18;;;4.90;99.90;;;;;;5027577;28;20087;-78
2022/01/02 02:12:39;;;;;;;11.35;5.97;;;5.00;99.90;;;;;;5026509;28;20534;-78
2022/01/02 02:15:06;;;;;;;7.85;4.70;;;5.10;99.90;;;;;;5024612;28;20021;-78
2022/01/02 02:17:33;;;;;;;7.72;4.50;;;5.20;99.90;;;;;;5027152;28;20033;-77
2022/01/02 02:20:17;;;;;;;8.77;4.30;;;5.30;99.90;;;;;;5023184;28;20100;-78
2022/01/02 02:22:46;;;;;;;4.60;3.33;;;5.20;99.90;;;;;;5026608;28;20028;-78
2022/01/02 02:25:14;;;;;;;4.68;3.00;;;5.30;99.90;;;;;;5027374;28;20506;-78
2022/01/02 02:27:47;;;;;;;5.10;3.10;;;5.40;99.90;;;;;;5027906;28;20034;-77
2022/01/02 02:30:13;;;;;;;3.97;3.03;;;5.40;99.90;;;;;;5029145;28;20033;-77
2022/01/02 02:32:38;;;;;;;5.18;2.78;;;5.50;99.90;;;;;;5027196;28;20406;-77
2022/01/02 02:35:04;;;;;;;4.35;3.13;;;5.50;99.90;;;;;;5027288;28;20359;-78
2022/01/02 02:37:30;;;;;;;4.13;2.65;;;5.60;99.90;;;;;;5027205;28;20022;-77
2022/01/02 02:39:56;;;;;;;3.17;2.50;;;5.60;99.90;;;;;;5020983;28;20483;-77
2022/01/02 02:42:40;;;;;;;6.00;2.90;;;5.60;99.90;;;;;;5023498;28;20426;-78
2022/01/02 02:48:59;;;;;;;4.80;2.70;;;5.70;99.90;;;;;;5026986;28;20045;-77
2022/01/02 02:50:47;;;;;;;4.18;2.45;;;5.70;99.90;;;;;;5025109;28;20036;-77
2022/01/02 02:53:15;;;;;;;2.58;2.17;;;5.80;99.90;;;;;;5023284;28;20040;-78
2022/01/02 02:55:45;;;;;;;3.47;2.53;;;5.80;99.90;;;;;;5029936;28;20057;-78
2022/01/02 02:58:39;;;;;;;3.92;2.67;;;5.80;99.90;;;;;;5030807;28;20026;-78
2022/01/02 03:01:05;;;;;;;3.10;2.00;;;5.80;99.90;;;;;;5030164;28;20033;-77
2022/01/02 03:03:31;;;;;;;3.00;2.55;;;5.90;99.90;;;;;;5029739;28;20021;-77
2022/01/02 03:05:56;;;;;;;3.85;2.40;;;5.90;99.90;;;;;;5031824;28;20498;-78
2022/01/02 03:08:22;;;;;;;5.07;2.70;;;5.90;99.90;;;;;;5030144;28;20030;-77
2022/01/02 03:10:48;;;;;;;4.80;2.75;;;5.90;99.90;;;;;;5030162;28;20498;-77
2022/01/02 03:13:14;;;;;;;3.70;2.08;;;5.90;99.90;;;;;;5030218;28;20036;-77
2022/01/02 03:15:39;;;;;;;3.17;2.35;;;5.90;99.90;;;;;;5029416;28;20499;-77
2022/01/02 03:18:05;;;;;;;2.63;2.15;;;5.90;99.90;;;;;;5031887;28;20026;-78
2022/01/02 03:20:31;;;;;;;3.75;2.60;;;5.90;99.90;;;;;;5017245;28;20109;-78
2022/01/02 03:22:57;;;;;;;3.45;2.22;;;5.90;99.90;;;;;;5030225;28;20108;-78
2022/01/02 03:25:22;;;;;;;4.05;2.05;;;5.90;99.90;;;;;;5029594;28;20029;-78
2022/01/02 03:27:48;;;;;;;3.58;2.47;;;5.90;99.90;;;;;;5030402;28;20033;-78
2022/01/02 03:30:14;;;;;;;3.25;2.13;;;6.00;99.90;;;;;;5031987;28;20388;-77
2022/01/02 03:32:40;;;;;;;3.30;2.40;;;6.00;99.90;;;;;;5028195;28;20099;-78
2022/01/02 03:35:07;;;;;;;2.63;1.95;;;6.00;99.90;;;;;;5030488;28;20052;-78
2022/01/02 03:37:33;;;;;;;2.75;1.98;;;6.00;99.90;;;;;;5014508;28;20041;-78
2022/01/02 03:40:06;;;;;;;3.95;1.90;;;6.10;99.90;;;;;;5029681;28;20017;-78
2022/01/02 03:42:32;;;;;;;1.95;1.65;;;6.10;99.90;;;;;;5030214;28;20025;-78
2022/01/02 03:44:58;;;;;;;2.15;1.95;;;6.10;99.90;;;;;;5030641;28;20060;-77
2022/01/02 03:47:26;;;;;;;2.65;2.00;;;6.10;99.90;;;;;;5029362;28;20049;-78
2022/01/02 03:49:52;;;;;;;3.38;2.40;;;6.10;99.90;;;;;;5027824;28;20151;-78
2022/01/02 03:52:18;;;;;;;3.33;2.60;;;6.20;99.90;;;;;;5029796;28;20057;-78
2022/01/02 03:54:44;;;;;;;3.10;2.20;;;6.20;99.90;;;;;;5028670;28;20537;-78
2022/01/02 03:57:10;;;;;;;3.67;2.20;;;6.20;99.90;;;;;;5031623;28;20101;-77
2022/01/02 03:59:35;;;;;;;3.25;2.42;;;6.20;99.90;;;;;;5029248;28;20029;-77
2022/01/02 04:02:01;;;;;;;3.05;2.55;;;6.20;99.90;;;;;;5029390;28;20025;-78
2022/01/02 04:04:28;;;;;;;3.45;2.38;;;6.30;99.90;;;;;;5029437;28;20128;-78
2022/01/02 04:06:54;;;;;;;2.33;1.73;;;6.30;99.90;;;;;;5029230;28;20036;-78
2022/01/02 04:09:20;;;;;;;2.33;2.10;;;6.30;99.90;;;;;;5031338;28;20022;-78
2022/01/02 04:11:46;;;;;;;3.40;2.60;;;6.40;99.90;;;;;;5029502;28;20033;-78
2022/01/02 04:14:12;;;;;;;4.18;2.90;;;6.30;99.90;;;;;;5028909;28;20029;-78
2022/01/02 04:16:37;;;;;;;4.03;2.92;;;6.30;99.90;;;;;;5029119;28;20034;-78
2022/01/02 04:19:03;;;;;;;3.92;2.58;;;6.40;99.90;;;;;;5028896;28;20032;-78
2022/01/02 04:21:29;;;;;;;4.45;2.78;;;6.40;99.90;;;;;;5029860;28;20056;-78
2022/01/02 04:23:55;;;;;;;4.07;2.97;;;6.40;99.90;;;;;;5029721;28;20494;-78
2022/01/02 04:26:21;;;;;;;4.43;2.88;;;6.30;99.90;;;;;;5029173;28;20022;-78
2022/01/02 04:28:46;;;;;;;4.28;2.70;;;6.40;99.90;;;;;;5028439;28;20052;-78
2022/01/02 04:31:12;;;;;;;5.25;2.80;;;6.40;99.90;;;;;;5028878;28;20100;-78
2022/01/02 04:33:38;;;;;;;6.18;3.35;;;6.40;99.90;;;;;;5029069;28;20021;-78
2022/01/02 04:36:04;;;;;;;6.22;3.15;;;6.50;99.90;;;;;;5028914;28;20503;-78
2022/01/02 04:38:30;;;;;;;5.45;3.53;;;6.50;99.90;;;;;;5027956;28;20025;-78
2022/01/02 04:40:56;;;;;;;4.95;3.38;;;6.40;99.90;;;;;;5028608;28;20033;-79
2022/01/02 04:43:22;;;;;;;5.13;3.13;;;6.40;99.90;;;;;;5028808;28;20510;-79
2022/01/02 04:45:48;;;;;;;3.15;2.63;;;6.40;99.90;;;;;;5028220;28;20037;-78
2022/01/02 04:48:14;;;;;;;5.88;3.20;;;6.40;99.90;;;;;;5031118;28;20534;-78
2022/01/02 04:50:40;;;;;;;6.28;4.00;;;6.50;99.90;;;;;;5028547;28;20110;-78
2022/01/02 04:53:06;;;;;;;6.30;4.00;;;6.50;99.90;;;;;;5028425;28;20029;-78
2022/01/02 04:55:32;;;;;;;6.28;3.63;;;6.50;99.90;;;;;;5023987;28;20052;-78
2022/01/02 04:57:58;;;;;;;5.30;3.22;;;6.50;99.90;;;;;;5028414;28;20021;-78
2022/01/02 05:00:23;;;;;;;6.80;3.80;;;6.50;99.90;;;;;;5026489;28;20462;-78
2022/01/02 05:02:49;;;;;;;6.60;3.47;;;6.50;99.90;;;;;;5028395;28;20025;-78
2022/01/02 05:05:16;;;;;;;8.82;4.38;;;6.50;99.90;;;;;;5023086;28;20033;-78
2022/01/02 05:07:42;;;;;;;7.00;4.20;;;6.50;99.90;;;;;;5027886;28;20049;-78
2022/01/02 05:10:08;;;;;;;6.20;3.58;;;6.60;99.90;;;;;;5026652;28;20033;-79
2022/01/02 05:12:34;;;;;;;6.90;3.75;;;6.60;99.90;;;;;;5027393;28;20120;-78
2022/01/02 05:15:00;;;;;;;5.88;3.13;;;6.60;99.90;;;;;;5024253;28;20113;-78
2022/01/02 05:17:26;;;;;;;7.82;4.25;;;6.60;99.90;;;;;;5026728;28;20503;-78
2022/01/02 05:19:52;;;;;;;7.78;3.80;;;6.60;99.90;;;;;;5028143;28;20028;-78
2022/01/02 05:22:18;;;;;;;6.68;3.88;;;6.60;99.90;;;;;;5027859;28;20121;-78
2022/01/02 05:24:44;;;;;;;6.88;3.83;;;6.60;99.90;;;;;;5027858;28;20108;-79
2022/01/02 05:27:10;;;;;;;7.15;4.30;;;6.60;99.90;;;;;;5030041;28;20056;-79
2022/01/02 05:29:35;;;;;;;10.80;4.82;;;6.60;99.90;;;;;;5028051;28;20095;-79
2022/01/02 05:32:01;;;;;;;8.23;4.05;;;6.60;99.90;;;;;;5027548;28;20040;-79
2022/01/02 05:34:27;;;;;;;11.55;4.55;;;6.60;99.90;;;;;;5027687;28;20037;-78
2022/01/02 05:36:53;;;;;;;7.65;4.32;;;6.70;99.90;;;;;;5026459;28;20029;-78
2022/01/02 05:39:20;;;;;;;9.50;4.93;;;6.70;99.90;;;;;;5028023;28;20025;-78
2022/01/02 05:41:47;;;;;;;9.70;5.47;;;6.70;99.90;;;;;;5028032;28;20036;-78
2022/01/02 05:44:13;;;;;;;9.80;4.80;;;6.70;99.90;;;;;;5025944;28;20029;-78
2022/01/02 05:46:40;;;;;;;8.35;4.50;;;6.70;99.90;;;;;;5027155;28;20037;-78
2022/01/02 05:49:06;;;;;;;9.85;4.90;;;6.70;99.90;;;;;;5027325;28;20027;-79
2022/01/02 05:51:32;;;;;;;8.75;4.18;;;6.70;99.90;;;;;;5026588;28;20031;-78
2022/01/02 05:53:58;;;;;;;9.25;4.93;;;6.70;99.90;;;;;;5028920;28;20128;-79
2022/01/02 05:56:24;;;;;;;8.70;4.15;;;6.70;99.90;;;;;;5023517;28;20562;-78
2022/01/02 05:58:49;;;;;;;8.50;4.70;;;6.70;99.90;;;;;;5027457;28;20545;-79
2022/01/02 06:01:15;;;;;;;6.22;3.90;;;6.70;99.90;;;;;;5027782;28;20517;-79
2022/01/02 06:03:41;;;;;;;9.38;5.45;;;6.70;99.90;;;;;;5026671;28;20242;-79
2022/01/02 06:06:06;;;;;;;9.73;4.90;;;6.70;99.90;;;;;;5028976;28;20147;-79
2022/01/02 06:08:32;;;;;;;11.63;5.78;;;6.70;99.90;;;;;;5027571;28;20026;-79
2022/01/02 06:10:58;;;;;;;9.13;5.32;;;6.70;99.90;;;;;;5027394;28;20468;-79
2022/01/02 06:13:24;;;;;;;8.23;4.85;;;6.80;99.90;;;;;;5024384;28;20030;-78
2022/01/02 06:15:49;;;;;;;9.25;5.00;;;6.70;99.90;;;;;;5026112;28;20100;-79
2022/01/02 06:18:15;;;;;;;9.07;5.10;;;6.80;99.90;;;;;;5029963;28;20391;-79
2022/01/02 06:20:41;;;;;;;9.02;4.55;;;6.70;99.90;;;;;;5025142;28;20021;-78
2022/01/02 06:23:07;;;;;;;9.10;4.60;;;6.70;99.90;;;;;;5027460;28;20515;-78
2022/01/02 06:25:33;;;;;;;8.25;4.60;;;6.70;99.90;;;;;;5027633;28;20017;-78
2022/01/02 06:27:59;;;;;;;10.13;4.80;;;6.80;99.90;;;;;;5027605;28;20022;-79
2022/01/02 06:30:25;;;;;;;9.93;5.10;;;6.70;99.90;;;;;;5031746;28;20071;-79
2022/01/02 06:32:55;;;;;;;9.68;5.07;;;6.70;99.90;;;;;;5029865;28;20034;-79
2022/01/02 06:35:41;;;;;;;10.80;5.20;;;6.70;99.90;;;;;;5030334;28;20033;-78
2022/01/02 06:38:19;;;;;;;10.07;4.70;;;6.70;99.90;;;;;;5024136;28;20021;-78
2022/01/02 06:40:45;;;;;;;9.77;5.07;;;6.80;99.90;;;;;;5030903;28;20118;-78
2022/01/02 06:43:13;;;;;;;9.20;5.78;;;6.70;99.90;;;;;;5031286;28;20060;-78
2022/01/02 06:45:38;;;;;;;8.07;4.85;;;6.80;99.90;;;;;;5030908;28;20068;-78
2022/01/02 06:48:04;;;;;;;9.93;4.40;;;6.70;99.90;;;;;;5032517;28;20065;-78
2022/01/02 06:50:31;;;;;;;10.23;4.75;;;6.80;99.90;;;;;;5029828;28;20039;-78
2022/01/02 06:52:57;;;;;;;12.13;4.63;;;6.70;99.90;;;;;;5031109;28;20076;-79
2022/01/02 06:55:23;;;;;;;9.15;4.75;;;6.70;99.90;;;;;;5030441;28;20021;-78
2022/01/02 06:57:49;;;;;;;8.50;4.72;;;6.70;99.90;;;;;;5030808;28;20038;-78
2022/01/02 07:00:15;;;;;;;8.70;4.28;;;6.70;99.90;;;;;;5032482;28;20169;-78
2022/01/02 07:02:41;;;;;;;8.45;5.07;;;6.80;99.90;;;;;;5029193;28;20112;-78
2022/01/02 07:05:07;;;;;;;8.20;5.07;;;6.80;99.90;;;;;;5029237;28;20044;-79
2022/01/02 07:07:38;;;;;;;10.35;5.45;;;6.80;99.90;;;;;;5030501;28;20029;-79
2022/01/02 07:10:04;;;;;;;9.50;5.25;;;6.80;99.90;;;;;;5029461;28;20037;-79
2022/01/02 07:12:30;;;;;;;11.32;5.75;;;6.80;99.90;;;;;;5027873;28;20033;-79
2022/01/02 07:14:55;;;;;;;11.10;5.53;;;6.80;99.90;;;;;;5031004;28;20025;-78
2022/01/02 07:17:21;;;;;;;9.80;4.97;;;6.80;99.90;;;;;;5028249;28;20048;-78
2022/01/02 07:19:47;;;;;;;9.43;5.00;;;6.80;99.90;;;;;;5025443;28;20030;-79
2022/01/02 07:22:12;;;;;;;11.48;5.25;;;6.80;99.90;;;;;;5030001;28;20108;-78
2022/01/02 07:24:39;;;;;;;14.25;6.20;;;6.80;99.90;;;;;;5029947;28;20475;-78
2022/01/02 07:27:05;;;;;;;12.38;6.57;;;6.70;99.90;;;;;;5031977;28;20009;-78
2022/01/02 07:29:31;;;;;;;10.43;5.60;;;6.80;99.90;;;;;;5028565;28;20109;-78
2022/01/02 07:31:56;;;;;;;10.35;4.95;;;6.80;99.90;;;;;;5025236;28;20383;-78
2022/01/02 07:34:22;;;;;;;10.80;5.40;;;6.80;99.90;;;;;;5028975;28;20100;-78
2022/01/02 07:36:48;;;;;;;8.68;4.75;;;6.80;99.90;;;;;;5029361;28;21310;-78
2022/01/02 07:39:15;;;;;;;11.52;5.82;;;6.80;99.90;;;;;;5031483;28;20030;-79
2022/01/02 07:41:41;;;;;;;13.80;6.13;;;6.80;99.90;;;;;;5029742;28;20022;-78
2022/01/02 07:44:08;;;;;;;11.32;5.80;;;6.80;99.90;;;;;;5029726;28;20025;-78
2022/01/02 07:46:34;;;;;;;10.30;5.50;;;6.70;99.90;;;;;;5024449;28;20128;-78
2022/01/02 07:49:00;;;;;;;13.90;6.72;;;6.80;99.90;;;;;;5029781;28;20052;-78
2022/01/02 07:51:26;;;;;;;14.57;6.65;;;6.80;99.90;;;;;;5032223;28;20143;-78
2022/01/02 07:53:52;;;;;;;15.10;7.07;;;6.80;99.90;;;;;;5029275;28;20045;-78
2022/01/02 07:56:18;;;;;;;12.52;6.60;;;6.80;99.90;;;;;;5029308;28;20491;-78
2022/01/02 07:58:43;;;;;;;11.82;6.63;;;6.80;99.90;;;;;;5029441;28;20410;-78
2022/01/02 08:01:09;;;;;;;14.75;7.40;;;6.80;99.90;;;;;;5027842;28;20017;-78
2022/01/02 08:03:35;;;;;;;11.75;6.45;;;6.80;99.90;;;;;;5028805;28;20026;-78
2022/01/02 08:06:01;;;;;;;15.40;7.55;;;6.80;99.90;;;;;;5030636;28;20450;-78
2022/01/02 08:08:27;;;;;;;14.13;6.72;;;6.80;99.90;;;;;;5029160;28;20113;-78
2022/01/02 08:10:52;;;;;;;15.02;7.63;;;6.90;99.90;;;;;;5028854;28;20097;-77
2022/01/02 08:13:18;;;;;;;17.00;8.98;;;6.80;99.90;;;;;;5029148;28;20606;-78
2022/01/02 08:15:44;;;;;;;15.93;8.05;;;6.90;99.90;;;;;;5028429;28;20018;-78
2022/01/02 08:18:13;;;;;;;15.35;8.45;;;6.80;99.90;;;;;;5031228;28;20522;-78
2022/01/02 08:20:40;;;;;;;12.98;7.20;;;6.90;99.90;;;;;;5029029;28;20052;-78
2022/01/02 08:23:06;;;;;;;13.48;6.53;;;6.90;99.90;;;;;;5028449;28;20021;-79
2022/01/02 08:25:32;;;;;;;15.07;6.72;;;6.90;99.90;;;;;;5026868;28;20034;-78
2022/01/02 08:27:58;;;;;;;14.60;7.03;;;6.90;99.90;;;;;;5027077;28;20108;-78
2022/01/02 08:30:23;;;;;;;14.00;7.72;;;6.90;99.90;;;;;;5027422;28;20613;-78
2022/01/02 08:32:49;;;;;;;14.32;6.97;;;7.00;99.90;;;;;;5023738;28;20111;-79
2022/01/02 08:35:15;;;;;;;15.55;7.53;;;6.90;99.90;;;;;;5026338;28;20487;-78
2022/01/02 08:37:41;;;;;;;13.88;6.78;;;6.90;99.90;;;;;;5025726;28;20101;-78
2022/01/02 08:40:08;;;;;;;15.63;7.40;;;7.00;99.90;;;;;;5022676;28;20076;-78
2022/01/02 08:42:34;;;;;;;11.82;6.43;;;7.00;99.90;;;;;;5028957;28;20022;-78
2022/01/02 08:44:59;;;;;;;12.85;7.03;;;7.00;99.90;;;;;;5025230;28;20056;-78
2022/01/02 08:47:25;;;;;;;15.00;7.68;;;7.00;99.90;;;;;;5028012;28;20037;-78
2022/01/02 08:49:51;;;;;;;12.20;6.90;;;7.10;99.90;;;;;;5028137;28;20853;-78
2022/01/02 08:52:17;;;;;;;18.45;8.43;;;7.10;99.90;;;;;;5027656;28;20083;-78
2022/01/02 08:54:43;;;;;;;18.33;8.60;;;7.00;99.90;;;;;;5027961;28;20044;-78
2022/01/02 08:57:10;;;;;;;17.13;8.27;;;7.10;99.90;;;;;;5028838;28;20488;-78
2022/01/02 08:59:36;;;;;;;17.95;8.20;;;7.10;99.90;;;;;;5028298;28;20115;-78
2022/01/02 09:02:01;;;;;;;17.80;9.45;;;7.20;99.90;;;;;;5024748;28;20022;-78
2022/01/02 09:04:27;;;;;;;17.08;7.60;;;7.20;99.90;;;;;;5024448;28;20022;-78
2022/01/02 09:06:53;;;;;;;18.30;8.77;;;7.20;99.90;;;;;;5027857;28;20396;-78
2022/01/02 09:09:19;;;;;;;16.00;8.05;;;7.30;99.90;;;;;;5029659;28;20044;-78
2022/01/02 09:11:45;;;;;;;17.10;8.65;;;7.40;99.90;;;;;;5027980;28;20124;-78
2022/01/02 09:14:11;;;;;;;17.55;8.55;;;7.40;99.90;;;;;;5027785;28;20034;-78
2022/01/02 09:16:37;;;;;;;18.27;9.05;;;7.40;99.90;;;;;;5027496;28;20032;-78
2022/01/02 09:19:03;;;;;;;17.35;8.35;;;7.40;99.90;;;;;;5026234;28;20398;-78
2022/01/02 09:21:28;;;;;;;18.88;9.00;;;7.40;99.90;;;;;;5029244;28;20492;-78
2022/01/02 09:23:54;;;;;;;18.05;8.75;;;7.40;99.90;;;;;;5028107;28;20018;-78
2022/01/02 09:26:20;;;;;;;15.70;8.32;;;7.40;99.90;;;;;;5027949;28;20029;-78
2022/01/02 09:28:45;;;;;;;16.33;8.18;;;7.40;99.90;;;;;;5025377;28;20502;-78
2022/01/02 09:31:11;;;;;;;15.35;8.18;;;7.50;99.90;;;;;;5023230;28;20026;-78
2022/01/02 09:33:37;;;;;;;16.98;9.05;;;7.60;99.90;;;;;;5028419;28;20025;-78
2022/01/02 09:36:02;;;;;;;19.10;8.57;;;7.60;99.90;;;;;;5029002;28;20486;-78
2022/01/02 09:38:28;;;;;;;16.48;9.18;;;7.60;99.90;;;;;;5027988;28;20535;-78
2022/01/02 09:40:54;;;;;;;17.88;9.02;;;7.70;99.90;;;;;;5025835;28;20550;-78
2022/01/02 09:43:19;;;;;;;18.20;9.15;;;7.60;99.90;;;;;;5026491;28;20134;-78
2022/01/02 09:45:49;;;;;;;16.60;8.38;;;7.60;99.90;;;;;;5026778;28;20057;-78
2022/01/02 09:48:15;;;;;;;19.08;10.32;;;7.60;99.90;;;;;;5029581;28;20112;-78
2022/01/02 09:50:41;;;;;;;21.88;9.68;;;7.60;99.90;;;;;;5027504;28;20157;-78
2022/01/02 09:53:07;;;;;;;19.88;8.55;;;7.70;99.90;;;;;;5021249;28;20406;-78
2022/01/02 09:55:33;;;;;;;20.10;10.40;;;7.70;99.90;;;;;;5026916;28;20029;-78
2022/01/02 09:58:00;;;;;;;15.82;9.25;;;7.70;99.90;;;;;;5027737;28;20018;-78
2022/01/02 10:00:27;;;;;;;15.77;8.07;;;7.90;99.90;;;;;;5028699;28;20074;-78
2022/01/02 10:03:00;;;;;;;21.48;10.07;;;7.90;99.90;;;;;;5027198;28;20037;-78
2022/01/02 10:05:27;;;;;;;19.70;8.80;;;7.80;99.90;;;;;;5029857;28;20040;-78
2022/01/02 10:07:54;;;;;;;17.08;8.65;;;7.90;99.90;;;;;;5030963;28;20018;-78
2022/01/02 10:10:20;;;;;;;14.25;7.60;;;7.90;99.90;;;;;;5031721;28;20044;-78
2022/01/02 10:12:47;;;;;;;21.13;9.95;;;8.10;99.90;;;;;;5030068;28;20057;-78
2022/01/02 10:15:17;;;;;;;16.60;8.35;;;8.20;99.90;;;;;;5032429;28;20530;-78
2022/01/02 10:17:59;;;;;;;17.85;8.85;;;8.10;99.90;;;;;;5046188;28;20105;-77
2022/01/02 10:20:27;;;;;;;14.30;7.63;;;8.20;99.90;;;;;;5042632;28;20116;-78
2022/01/02 10:23:20;;;;;;;18.88;9.35;;;8.30;99.90;;;;;;5033503;28;20124;-77
2022/01/02 10:25:53;;;;;;;17.58;9.60;;;8.30;99.90;;;;;;5028912;28;20068;-77
2022/01/02 10:28:38;;;;;;;20.00;9.77;;;8.40;99.90;;;;;;5028565;28;20074;-77
2022/01/02 10:31:09;;;;;;;19.40;10.95;;;8.40;99.90;;;;;;5027441;28;20037;-77
2022/01/02 10:33:48;;;;;;;17.77;9.13;;;8.40;99.90;;;;;;5031933;28;20101;-77
2022/01/02 10:36:14;;;;;;;18.83;10.02;;;8.20;99.90;;;;;;5032585;28;20284;-78
2022/01/02 10:38:58;;;;;;;22.08;10.18;;;8.20;99.90;;;;;;5030784;28;20250;-78
2022/01/02 10:41:40;;;;;;;18.38;9.82;;;8.30;99.90;;;;;;5030409;28;20037;-78
2022/01/02 10:44:34;;;;;;;20.35;10.50;;;8.50;99.90;;;;;;5030395;28;20029;-77
2022/01/02 10:47:17;;;;;;;20.05;9.95;;;8.40;99.90;;;;;;5038704;28;20045;-77
2022/01/02 10:50:07;;;;;;;20.60;9.85;;;8.40;99.90;;;;;;5029603;28;20061;-77
2022/01/02 10:52:38;;;;;;;21.05;9.60;;;8.40;99.90;;;;;;5027538;28;20517;-77
2022/01/02 10:55:16;;;;;;;21.02;10.40;;;8.50;99.90;;;;;;5028285;28;20072;-77
2022/01/02 10:57:42;;;;;;;19.92;10.38;;;8.90;99.90;;;;;;5028353;28;20483;-77
2022/01/02 11:00:10;;;;;;;19.88;11.20;;;9.00;99.90;;;;;;5029379;28;20028;-77
2022/01/02 11:02:38;;;;;;;22.60;11.13;;;9.30;99.90;;;;;;5026622;28;20076;-78
2022/01/02 11:05:12;;;;;;;22.27;10.52;;;9.10;99.90;;;;;;5028481;28;20120;-77
2022/01/02 11:07:44;;;;;;;19.77;10.95;;;9.30;99.90;;;;;;5027703;28;20459;-77
2022/01/02 11:10:12;;;;;;;20.55;10.68;;;9.30;99.90;;;;;;5026996;28;20525;-78
2022/01/02 11:12:39;;;;;;;22.35;11.20;;;9.40;99.90;;;;;;5028012;28;20022;-77
2022/01/02 11:15:12;;;;;;;20.88;11.38;;;9.50;99.90;;;;;;5027854;28;20033;-77
2022/01/02 11:17:38;;;;;;;24.73;12.40;;;9.60;99.90;;;;;;5026533;28;20026;-78
2022/01/02 11:20:07;;;;;;;20.63;11.57;;;9.50;99.90;;;;;;5028245;28;20029;-78
2022/01/02 11:23:04;;;;;;;18.80;9.93;;;9.50;99.90;;;;;;5025772;28;20494;-78
2022/01/02 11:25:42;;;;;;;23.67;11.02;;;9.50;99.90;;;;;;5028895;28;20052;-87
2022/01/02 11:28:14;;;;;;;18.30;9.70;;;9.50;99.90;;;;;;5029980;28;20693;-88
2022/01/02 11:30:41;;;;;;;21.65;9.55;;;9.50;99.90;;;;;;5026010;28;20032;-89
2022/01/02 11:33:12;;;;;;;20.67;9.90;;;9.60;99.90;;;;;;5029961;28;20025;-89
2022/01/02 11:35:40;;;;;;;16.90;7.93;;;9.70;99.90;;;;;;5031988;28;20025;-89
2022/01/02 11:38:06;;;;;;;15.65;8.63;;;9.80;99.90;;;;;;5031391;28;20025;-90
2022/01/02 11:40:57;;;;;;;12.70;7.75;;;9.90;99.90;;;;;;5034667;28;20572;-90
2022/01/02 11:43:35;;;;;;;14.32;8.68;;;10.10;99.90;;;;;;5030157;28;20112;-89
2022/01/02 11:46:19;;;;;;;12.82;7.63;;;10.10;99.90;;;;;;5029268;28;20050;-89
2022/01/02 11:49:13;;;;;;;12.38;8.00;;;10.30;99.90;;;;;;5028778;28;20033;-90
2022/01/02 11:51:48;;;;;;;13.27;7.57;;;10.40;99.90;;;;;;5026606;28;20503;-90
2022/01/02 11:54:29;;;;;;;12.95;7.35;;;10.40;99.90;;;;;;5018733;28;20110;-90
2022/01/02 11:57:15;;;;;;;12.15;7.25;;;10.70;99.90;;;;;;5025806;28;20080;-90
2022/01/02 11:59:45;;;;;;;13.43;6.22;;;10.70;99.90;;;;;;5027914;28;20037;-90
2022/01/02 12:02:26;;;;;;;11.30;6.57;;;10.70;99.90;;;;;;5027775;28;20026;-90
2022/01/02 12:07:35;;;;;;;11.13;5.68;;;10.80;99.90;;;;;;5029498;28;20034;-90
2022/01/02 12:10:16;;;;;;;10.23;5.88;;;10.80;99.90;;;;;;5061788;28;20602;-91
2022/01/02 12:13:02;;;;;;;7.88;5.28;;;10.70;99.90;;;;;;5029382;28;20030;-90
2022/01/02 12:15:33;;;;;;;9.18;5.93;;;10.80;99.90;;;;;;5027165;28;20082;-89
2022/01/02 12:18:17;;;;;;;9.57;5.72;;;10.80;99.90;;;;;;5030376;28;20032;-90
2022/01/02 12:21:00;;;;;;;6.55;4.65;;;10.80;99.90;;;;;;5028551;28;20057;-90
2022/01/02 12:23:50;;;;;;;7.72;4.63;;;10.80;99.90;;;;;;5028972;28;20473;-91
2022/01/02 12:26:28;;;;;;;6.50;4.43;;;10.80;99.90;;;;;;5028346;28;20029;-90
2022/01/02 12:28:57;;;;;;;6.20;4.15;;;10.90;99.90;;;;;;5027864;28;20511;-90
2022/01/02 12:31:34;;;;;;;7.78;5.22;;;11.00;99.90;;;;;;5028082;28;20048;-91
2022/01/02 12:34:03;;;;;;;7.85;4.72;;;11.00;99.90;;;;;;5016925;28;20522;-90
2022/01/02 12:36:29;;;;;;;6.97;4.38;;;11.00;99.90;;;;;;5030182;28;20447;-91
2022/01/02 12:38:57;;;;;;;5.50;3.92;;;11.00;99.90;;;;;;5028226;28;20529;-90
2022/01/02 12:41:32;;;;;;;5.45;4.15;;;11.00;99.90;;;;;;5029225;28;20141;-90
2022/01/02 12:44:04;;;;;;;7.45;4.60;;;11.10;99.90;;;;;;5029378;28;20028;-91
2022/01/02 12:46:48;;;;;;;7.32;3.97;;;11.20;99.90;;;;;;5029755;28;20056;-91
2022/01/02 12:49:15;;;;;;;6.60;3.70;;;11.20;99.90;;;;;;5023137;28;20057;-90
2022/01/02 12:51:43;;;;;;;6.13;4.15;;;11.30;99.90;;;;;;5029037;28;20034;-90
2022/01/02 12:54:12;;;;;;;4.93;3.88;;;11.30;99.90;;;;;;5018457;28;20022;-89
2022/01/02 12:56:40;;;;;;;6.35;3.35;;;11.40;99.90;;;;;;5026811;28;20114;-89
2022/01/02 12:59:21;;;;;;;4.82;3.05;;;11.30;99.90;;;;;;5029533;28;20505;-90
2022/01/02 13:01:51;;;;;;;4.75;3.55;;;11.50;99.90;;;;;;5018564;28;20180;-90
2022/01/02 13:04:17;;;;;;;6.97;3.10;;;11.40;99.90;;;;;;5025099;28;20049;-90
2022/01/02 13:06:46;;;;;;;3.40;2.58;;;11.30;99.90;;;;;;5026073;28;20069;-90